KFAM/FAM METAR and TAF weather

Enter ICAO airport designator
Station Type Date Time Source
KFAM METAR 2023/02/06 18:56 UTC NOAA

KFAM 061856Z AUTO 17016G24KT 10SM CLR 16/01 A3005 RMK AO2 PK WND 15029/1833 SLP188 T01560011


Station Type Date Time Source
KFAM Decoded METAR 2023/02/06 18:56 UTC NOAA

Farmington Airport, MO, United States (KFAM) 37-46N 090-26W
Feb 06, 2023 - 01:56 PM EST / 2023.02.06 1856 UTC
Wind: from the S (170 degrees) at 18 MPH (16 KT) gusting to 28 MPH (24 KT):0
Visibility: 10 mile(s):0
Sky conditions: clear
Temperature: 60.1 F (15.6 C)
Dew Point: 34.0 F (1.1 C)
Relative Humidity: 37%
Pressure (altimeter): 30.05 in. Hg (1017 hPa)
ob: KFAM 061856Z AUTO 17016G24KT 10SM CLR 16/01 A3005 RMK AO2 PK WND 15029/1833 SLP188 T01560011
cycle: 19

Station Type Date Time Source
KFAM TAF UTC NOAA

Error!

Example: see airport list